createdAt,value
2023-06-02T00:00:08.865Z,2.65
2023-06-02T00:03:12.308Z,3.37
2023-06-02T00:06:19.445Z,2.75
2023-06-02T00:09:21.950Z,2.75
2023-06-02T00:12:24.229Z,2.85
2023-06-02T00:15:26.505Z,2.95
2023-06-02T00:18:29.148Z,3.20
2023-06-02T00:21:31.500Z,3.97
2023-06-02T00:24:33.811Z,3.12
2023-06-02T00:27:36.125Z,3.05
2023-06-02T00:30:38.511Z,2.80
2023-06-02T00:33:42.712Z,3.15
2023-06-02T00:36:44.973Z,2.90
2023-06-02T00:39:47.252Z,3.67
2023-06-02T00:42:49.816Z,3.10
2023-06-02T00:45:52.081Z,2.97
2023-06-02T00:48:54.352Z,3.45
2023-06-02T00:51:56.617Z,3.28
2023-06-02T00:54:59.228Z,3.47
2023-06-02T00:58:04.883Z,3.00
2023-06-02T01:01:11.700Z,3.28
2023-06-02T01:04:14.871Z,3.30
2023-06-02T01:07:24.555Z,3.05
2023-06-02T01:10:27.293Z,3.33
2023-06-02T01:13:29.591Z,3.10
2023-06-02T01:16:33.966Z,3.65
2023-06-02T01:19:39.433Z,3.45
2023-06-02T01:23:07.473Z,3.10
2023-06-02T01:26:10.493Z,3.03
2023-06-02T01:29:13.329Z,3.10
2023-06-02T01:32:26.590Z,2.90
2023-06-02T01:35:31.900Z,3.45
2023-06-02T01:38:35.914Z,3.45
2023-06-02T01:41:41.795Z,3.10
2023-06-02T01:44:44.369Z,3.22
2023-06-02T01:47:46.600Z,2.90
2023-06-02T01:50:48.876Z,2.80
2023-06-02T01:53:51.137Z,3.95
2023-06-02T01:56:53.412Z,3.20
2023-06-02T01:59:55.663Z,3.33
2023-06-02T02:02:58.805Z,3.22
2023-06-02T02:06:01.415Z,3.08
2023-06-02T02:09:05.058Z,3.25
2023-06-02T02:12:07.628Z,3.35
2023-06-02T02:15:10.767Z,3.40
2023-06-02T02:18:13.440Z,3.58
2023-06-02T02:21:15.702Z,4.03
2023-06-02T02:24:18.110Z,3.12
2023-06-02T02:27:20.345Z,3.67
2023-06-02T02:30:22.763Z,3.65
2023-06-02T02:33:25.006Z,3.17
2023-06-02T02:36:27.235Z,3.35
2023-06-02T02:39:30.296Z,3.33
2023-06-02T02:42:35.794Z,3.53
2023-06-02T02:45:38.252Z,3.47
2023-06-02T02:48:40.541Z,2.95
2023-06-02T02:51:42.791Z,3.37
2023-06-02T02:54:45.091Z,3.60
2023-06-02T02:57:47.342Z,3.45
2023-06-02T03:00:49.643Z,3.12
2023-06-02T03:03:52.538Z,3.65
2023-06-02T03:06:56.051Z,3.37
2023-06-02T03:09:58.765Z,3.97
2023-06-02T03:13:01.111Z,3.90
2023-06-02T03:16:04.294Z,3.40
2023-06-02T03:19:07.543Z,3.60
2023-06-02T03:22:09.812Z,3.90
2023-06-02T03:25:12.057Z,3.80
2023-06-02T03:28:14.359Z,3.35
2023-06-02T03:31:16.587Z,3.70
2023-06-02T03:34:19.003Z,3.80
2023-06-02T03:37:21.237Z,3.50
2023-06-02T03:40:23.491Z,3.67
2023-06-02T03:43:25.710Z,3.50
2023-06-02T03:46:28.391Z,3.37
2023-06-02T03:49:30.938Z,4.00
2023-06-02T03:52:33.145Z,4.10
2023-06-02T03:55:35.716Z,3.55
2023-06-02T03:58:37.941Z,3.20
2023-06-02T04:01:42.742Z,3.30
2023-06-02T04:04:45.080Z,3.83
2023-06-02T04:07:47.779Z,3.22
2023-06-02T04:10:50.088Z,3.67
2023-06-02T04:13:52.293Z,2.80
2023-06-02T04:16:55.314Z,2.70
2023-06-02T04:19:57.761Z,3.80
2023-06-02T04:23:00.037Z,3.33
2023-06-02T04:26:02.446Z,3.60
2023-06-02T04:29:04.803Z,3.53
2023-06-02T04:32:07.985Z,3.15
2023-06-02T04:35:10.607Z,3.50
2023-06-02T04:38:13.282Z,3.65
2023-06-02T04:41:16.129Z,3.17
2023-06-02T04:44:18.399Z,3.83
2023-06-02T04:47:20.965Z,3.37
2023-06-02T04:50:23.414Z,3.40
2023-06-02T04:53:25.617Z,3.58
2023-06-02T04:56:28.514Z,3.55
2023-06-02T04:59:30.766Z,3.37
2023-06-02T05:02:33.117Z,3.30
2023-06-02T05:05:35.397Z,3.53
2023-06-02T05:08:37.744Z,2.95
2023-06-02T05:11:40.867Z,2.95
2023-06-02T05:14:43.756Z,3.10
2023-06-02T05:17:46.039Z,2.72
2023-06-02T05:20:48.621Z,3.10
2023-06-02T05:23:50.872Z,2.65
2023-06-02T05:26:53.086Z,2.78
2023-06-02T05:29:55.356Z,2.90
2023-06-02T05:32:57.586Z,2.60
2023-06-02T05:35:59.930Z,2.85
2023-06-02T05:39:02.270Z,2.42
2023-06-02T05:42:04.758Z,2.67
2023-06-02T05:45:07.740Z,2.50
2023-06-02T05:48:10.049Z,2.85
2023-06-02T05:51:12.314Z,3.00
2023-06-02T05:54:14.622Z,2.62
2023-06-02T05:57:18.632Z,2.50
2023-06-02T06:00:21.535Z,2.80
2023-06-02T06:03:24.266Z,2.75
2023-06-02T06:06:26.710Z,2.53
2023-06-02T06:09:29.064Z,2.90
2023-06-02T06:12:31.299Z,2.28
2023-06-02T06:15:33.569Z,2.30
2023-06-02T06:18:35.902Z,2.12
2023-06-02T06:21:38.853Z,2.53
2023-06-02T06:24:41.113Z,2.28
2023-06-02T06:27:43.396Z,2.30
2023-06-02T06:30:46.684Z,2.70
2023-06-02T06:33:48.980Z,4.03
2023-06-02T06:36:51.230Z,2.20
2023-06-02T06:39:53.460Z,2.50
2023-06-02T06:42:55.799Z,2.42
2023-06-02T06:45:58.066Z,2.40
2023-06-02T06:49:00.533Z,2.47
2023-06-02T06:52:02.770Z,2.50
2023-06-02T06:55:06.241Z,2.50
2023-06-02T06:58:08.470Z,2.40
2023-06-02T07:01:11.678Z,2.50
2023-06-02T07:04:14.592Z,2.65
2023-06-02T07:07:17.111Z,2.62
2023-06-02T07:10:19.493Z,2.47
2023-06-02T07:13:21.777Z,2.40
2023-06-02T07:16:24.008Z,2.70
2023-06-02T07:19:26.506Z,2.50
2023-06-02T07:22:28.949Z,2.50
2023-06-02T07:25:31.304Z,2.50
2023-06-02T07:31:40.940Z,2.42
2023-06-02T07:34:43.174Z,2.15
2023-06-02T07:37:45.463Z,2.67
2023-06-02T07:40:47.662Z,2.45
2023-06-02T07:43:49.897Z,2.08
2023-06-02T07:46:52.240Z,2.30
2023-06-02T07:49:54.621Z,2.22
2023-06-02T07:52:57.029Z,1.95
2023-06-02T07:55:59.666Z,2.42
2023-06-02T07:59:01.966Z,2.12
2023-06-02T08:02:04.876Z,1.77
2023-06-02T08:05:08.034Z,1.65
2023-06-02T08:08:10.888Z,1.90
2023-06-02T08:11:13.753Z,1.60
2023-06-02T08:14:16.204Z,1.70
2023-06-02T08:17:18.434Z,1.98
2023-06-02T08:20:20.791Z,2.25
2023-06-02T08:23:23.038Z,1.98
2023-06-02T08:26:25.360Z,2.10
2023-06-02T08:29:28.190Z,2.55
2023-06-02T08:32:33.755Z,2.22
2023-06-02T08:35:39.370Z,2.62
2023-06-02T08:38:41.772Z,2.60
2023-06-02T08:41:47.395Z,1.98
2023-06-02T08:44:49.902Z,2.45
2023-06-02T08:47:57.406Z,1.92
2023-06-02T08:51:02.476Z,2.15
2023-06-02T08:54:06.915Z,2.25
2023-06-02T08:57:10.847Z,2.10
2023-06-02T09:00:13.762Z,2.03
2023-06-02T09:06:27.949Z,1.90
2023-06-02T09:09:43.094Z,1.95
2023-06-02T09:12:49.298Z,2.00
2023-06-02T09:15:59.372Z,1.90
2023-06-02T09:19:02.115Z,1.75
2023-06-02T09:22:08.447Z,1.90
2023-06-02T09:25:21.893Z,1.80
2023-06-02T09:28:25.483Z,1.85
2023-06-02T09:31:30.778Z,1.83
2023-06-02T09:34:37.058Z,2.20
2023-06-02T09:37:54.677Z,1.77
2023-06-02T09:40:58.589Z,2.33
2023-06-02T09:44:01.176Z,2.20
2023-06-02T09:47:04.987Z,1.98
2023-06-02T09:50:07.917Z,2.28
2023-06-02T09:53:12.468Z,2.40
2023-06-02T09:56:15.912Z,2.12
2023-06-02T09:59:18.829Z,2.00
2023-06-02T10:02:21.286Z,2.00
2023-06-02T10:05:24.214Z,1.80
2023-06-02T10:08:37.617Z,2.15
2023-06-02T10:12:09.251Z,2.10
2023-06-02T10:15:20.108Z,1.80
2023-06-02T10:18:34.891Z,1.77
2023-06-02T10:22:08.811Z,1.77
2023-06-02T10:25:11.120Z,2.83
2023-06-02T10:28:13.908Z,1.55
2023-06-02T10:31:16.420Z,1.67
2023-06-02T10:34:38.655Z,2.55
2023-06-02T10:37:41.715Z,2.00
2023-06-02T10:40:51.403Z,2.30
2023-06-02T10:44:25.431Z,2.65
2023-06-02T10:47:30.636Z,2.20
2023-06-02T10:50:53.047Z,2.30
2023-06-02T10:54:05.561Z,2.25
2023-06-02T10:57:08.344Z,2.30
2023-06-02T11:00:47.047Z,2.10
2023-06-02T11:03:49.694Z,2.40
2023-06-02T11:07:11.184Z,1.85
2023-06-02T11:10:42.333Z,2.05
2023-06-02T11:14:04.806Z,2.22
2023-06-02T11:17:33.766Z,1.80
2023-06-02T11:20:36.808Z,1.83
2023-06-02T11:23:42.520Z,2.22
2023-06-02T11:26:48.641Z,2.20
2023-06-02T11:30:12.010Z,2.40
2023-06-02T11:33:14.261Z,2.12
2023-06-02T11:36:27.043Z,2.03
2023-06-02T11:39:29.226Z,1.77
2023-06-02T11:42:36.213Z,2.33
2023-06-02T11:45:39.548Z,1.85
2023-06-02T11:48:42.111Z,2.10
2023-06-02T11:51:44.543Z,2.45
2023-06-02T11:54:54.257Z,2.20
2023-06-02T11:58:19.733Z,2.20
2023-06-02T12:01:26.374Z,2.08
2023-06-02T12:04:28.721Z,1.62
2023-06-02T12:07:31.161Z,1.60
2023-06-02T12:10:33.568Z,1.90
2023-06-02T12:13:35.993Z,2.00
2023-06-02T12:16:43.525Z,2.50
2023-06-02T12:19:57.079Z,1.92
2023-06-02T12:22:59.331Z,2.15
2023-06-02T12:26:01.555Z,2.40
2023-06-02T12:29:04.531Z,2.55
2023-06-02T12:32:08.456Z,2.62
2023-06-02T12:35:11.058Z,2.65
2023-06-02T12:38:14.395Z,2.85
2023-06-02T12:41:16.586Z,2.80
2023-06-02T12:44:19.198Z,2.33
2023-06-02T12:47:22.648Z,2.53
2023-06-02T12:50:25.524Z,2.70
2023-06-02T12:53:27.856Z,2.70
2023-06-02T12:56:32.571Z,2.70
2023-06-02T12:59:35.655Z,2.62
2023-06-02T13:02:38.136Z,2.65
2023-06-02T13:05:40.541Z,2.65
2023-06-02T13:08:42.789Z,2.78
2023-06-02T13:11:47.837Z,2.28
2023-06-02T13:14:50.067Z,2.45
2023-06-02T13:17:52.380Z,2.20
2023-06-02T13:20:57.943Z,2.80
2023-06-02T13:24:00.322Z,2.40
2023-06-02T13:27:02.544Z,2.03
2023-06-02T13:30:05.558Z,2.30
2023-06-02T13:33:08.359Z,2.20
2023-06-02T13:36:10.729Z,2.25
2023-06-02T13:39:13.983Z,2.20
2023-06-02T13:42:16.637Z,1.92
2023-06-02T13:45:18.932Z,2.17
2023-06-02T13:48:21.197Z,1.73
2023-06-02T13:51:23.422Z,1.30
2023-06-02T13:54:25.818Z,1.60
2023-06-02T13:57:28.078Z,1.50
2023-06-02T14:00:30.319Z,1.70
2023-06-02T14:03:32.742Z,1.20
2023-06-02T14:06:36.703Z,1.77
2023-06-02T14:09:39.046Z,1.25
2023-06-02T14:12:41.401Z,1.02
2023-06-02T14:15:43.856Z,1.10
2023-06-02T14:18:46.083Z,1.37
2023-06-02T14:21:48.371Z,0.95
2023-06-02T14:24:50.673Z,1.73
2023-06-02T14:27:52.900Z,1.40
2023-06-02T14:30:55.179Z,1.20
2023-06-02T14:33:57.466Z,1.27
2023-06-02T14:36:59.735Z,1.20
2023-06-02T14:40:02.074Z,1.58
2023-06-02T14:43:05.596Z,0.90
2023-06-02T14:46:10.094Z,1.15
2023-06-02T14:49:12.589Z,1.20
2023-06-02T14:52:14.914Z,1.25
2023-06-02T14:55:17.766Z,1.25
2023-06-02T14:58:20.274Z,1.25
2023-06-02T15:01:23.030Z,1.20
2023-06-02T15:04:25.834Z,1.10
2023-06-02T15:07:28.151Z,1.30
2023-06-02T15:10:32.132Z,1.40
2023-06-02T15:13:34.440Z,1.20
2023-06-02T15:16:36.780Z,1.10
2023-06-02T15:19:39.350Z,1.20
2023-06-02T15:22:42.526Z,1.30
2023-06-02T15:25:45.416Z,1.23
2023-06-02T15:28:48.030Z,1.20
2023-06-02T15:31:50.477Z,1.30
2023-06-02T15:34:52.705Z,2.50
2023-06-02T15:37:54.941Z,1.05
2023-06-02T15:40:57.199Z,1.33
2023-06-02T15:43:59.432Z,1.37
2023-06-02T15:47:01.802Z,1.50
2023-06-02T15:50:04.498Z,1.25
2023-06-02T15:53:07.087Z,1.35
2023-06-02T15:56:10.117Z,1.55
2023-06-02T15:59:12.341Z,1.45
2023-06-02T16:02:14.847Z,1.25
2023-06-02T16:05:17.495Z,1.75
2023-06-02T16:08:19.730Z,1.50
2023-06-02T16:11:22.679Z,1.60
2023-06-02T16:14:24.950Z,1.40
2023-06-02T16:17:27.349Z,1.45
2023-06-02T16:20:29.787Z,1.80
2023-06-02T16:23:32.108Z,1.70
2023-06-02T16:26:34.732Z,1.50
2023-06-02T16:29:38.037Z,1.73
2023-06-02T16:32:40.489Z,1.45
2023-06-02T16:35:42.870Z,1.60
2023-06-02T16:38:45.124Z,1.73
2023-06-02T16:41:47.532Z,1.60
2023-06-02T16:44:54.222Z,1.65
2023-06-02T16:47:57.521Z,1.95
2023-06-02T16:50:59.792Z,1.65
2023-06-02T16:54:02.000Z,1.70
2023-06-02T16:57:04.545Z,1.50
2023-06-02T17:00:09.154Z,2.20
2023-06-02T17:03:11.969Z,1.80
2023-06-02T17:06:14.294Z,2.03
2023-06-02T17:09:17.439Z,1.73
2023-06-02T17:12:19.778Z,2.00
2023-06-02T17:15:22.003Z,1.67
2023-06-02T17:18:24.240Z,2.08
2023-06-02T17:21:29.520Z,1.90
2023-06-02T17:24:31.819Z,2.30
2023-06-02T17:27:34.550Z,2.08
2023-06-02T17:30:37.679Z,2.22
2023-06-02T17:33:40.009Z,1.60
2023-06-02T17:36:43.929Z,1.85
2023-06-02T17:39:46.766Z,2.30
2023-06-02T17:42:49.463Z,1.60
2023-06-02T17:45:51.704Z,1.80
2023-06-02T17:48:54.251Z,1.85
2023-06-02T17:51:56.564Z,2.12
2023-06-02T17:54:59.182Z,1.98
2023-06-02T17:58:03.933Z,2.00
2023-06-02T18:01:06.585Z,2.00
2023-06-02T18:04:09.133Z,2.20
2023-06-02T18:07:11.470Z,2.10
2023-06-02T18:10:13.825Z,1.80
2023-06-02T18:13:16.126Z,1.98
2023-06-02T18:16:18.458Z,2.20
2023-06-02T18:19:21.364Z,1.77
2023-06-02T18:22:23.608Z,2.10
2023-06-02T18:25:26.026Z,2.22
2023-06-02T18:28:28.255Z,2.03
2023-06-02T18:31:30.541Z,2.00
2023-06-02T18:34:32.806Z,2.00
2023-06-02T18:37:36.655Z,2.05
2023-06-02T18:40:39.523Z,2.35
2023-06-02T18:43:42.084Z,2.00
2023-06-02T18:46:44.676Z,2.45
2023-06-02T18:49:47.221Z,3.10
2023-06-02T18:52:49.455Z,2.30
2023-06-02T18:55:51.783Z,2.05
2023-06-02T18:58:54.181Z,2.35
2023-06-02T19:01:56.569Z,2.28
2023-06-02T19:04:59.064Z,2.30
2023-06-02T19:08:01.723Z,2.15
2023-06-02T19:11:04.121Z,2.42
2023-06-02T19:14:09.031Z,2.42
2023-06-02T19:17:12.156Z,2.28
2023-06-02T19:20:14.664Z,2.47
2023-06-02T19:23:17.554Z,2.33
2023-06-02T19:26:25.676Z,2.15
2023-06-02T19:29:28.124Z,2.20
2023-06-02T19:32:31.387Z,2.85
2023-06-02T19:35:36.569Z,2.30
2023-06-02T19:38:38.899Z,2.47
2023-06-02T19:41:41.641Z,2.33
2023-06-02T19:44:47.327Z,2.22
2023-06-02T19:47:49.854Z,2.10
2023-06-02T19:50:52.103Z,2.75
2023-06-02T19:53:54.396Z,3.45
2023-06-02T19:56:56.626Z,2.20
2023-06-02T19:59:58.883Z,2.47
2023-06-02T20:03:01.244Z,2.37
2023-06-02T20:06:03.805Z,2.55
2023-06-02T20:09:08.085Z,2.33
2023-06-02T20:12:10.406Z,2.58
2023-06-02T20:15:12.925Z,2.92
2023-06-02T20:18:15.235Z,2.53
2023-06-02T20:21:17.667Z,2.70
2023-06-02T20:24:19.918Z,2.40
2023-06-02T20:27:22.203Z,2.53
2023-06-02T20:30:24.576Z,2.03
2023-06-02T20:33:26.827Z,2.15
2023-06-02T20:36:29.088Z,2.10
2023-06-02T20:39:31.330Z,2.05
2023-06-02T20:42:33.653Z,2.03
2023-06-02T20:45:36.018Z,2.35
2023-06-02T20:48:38.308Z,2.37
2023-06-02T20:51:41.788Z,2.97
2023-06-02T20:54:44.158Z,2.60
2023-06-02T20:57:46.365Z,2.50
2023-06-02T21:00:48.817Z,2.20
2023-06-02T21:03:51.582Z,2.17
2023-06-02T21:06:53.898Z,2.28
2023-06-02T21:09:56.208Z,2.00
2023-06-02T21:12:58.889Z,2.45
2023-06-02T21:16:01.393Z,2.22
2023-06-02T21:19:04.063Z,2.87
2023-06-02T21:22:06.513Z,2.28
2023-06-02T21:25:09.234Z,2.55
2023-06-02T21:28:11.504Z,2.25
2023-06-02T21:31:13.795Z,2.62
2023-06-02T21:34:16.036Z,2.33
2023-06-02T21:37:18.379Z,2.37
2023-06-02T21:40:20.842Z,2.60
2023-06-02T21:43:23.200Z,2.60
2023-06-02T21:46:25.593Z,2.00
2023-06-02T21:49:27.863Z,2.62
2023-06-02T21:52:30.133Z,2.15
2023-06-02T21:55:32.448Z,2.47
2023-06-02T21:58:35.719Z,2.33
2023-06-02T22:01:38.052Z,3.08
2023-06-02T22:04:40.356Z,2.47
2023-06-02T22:07:42.566Z,2.37
2023-06-02T22:10:44.831Z,2.92
2023-06-02T22:13:47.535Z,2.37
2023-06-02T22:16:49.878Z,2.37
2023-06-02T22:19:52.142Z,2.75
2023-06-02T22:22:54.354Z,2.65
2023-06-02T22:25:56.759Z,2.83
2023-06-02T22:28:59.017Z,2.40
2023-06-02T22:32:01.430Z,2.40
2023-06-02T22:35:04.026Z,2.40
2023-06-02T22:38:06.285Z,2.22
2023-06-02T22:41:08.536Z,2.40
2023-06-02T22:44:10.999Z,2.95
2023-06-02T22:47:13.241Z,2.28
2023-06-02T22:50:15.909Z,2.42
2023-06-02T22:53:18.113Z,2.72
2023-06-02T22:56:20.780Z,2.70
2023-06-02T22:59:23.164Z,2.60
2023-06-02T23:02:25.508Z,2.70
2023-06-02T23:05:27.834Z,2.85
2023-06-02T23:08:30.599Z,2.25
2023-06-02T23:11:32.859Z,2.25
2023-06-02T23:14:35.092Z,2.33
2023-06-02T23:17:38.016Z,2.53
2023-06-02T23:20:40.334Z,2.97
2023-06-02T23:23:42.655Z,2.22
2023-06-02T23:26:44.959Z,2.60
2023-06-02T23:29:47.294Z,2.40
2023-06-02T23:32:49.583Z,3.12
2023-06-02T23:35:51.833Z,3.33
2023-06-02T23:38:54.066Z,2.55
2023-06-02T23:41:56.417Z,2.67
2023-06-02T23:44:58.650Z,2.03
2023-06-02T23:48:03.448Z,2.60
2023-06-02T23:51:09.372Z,2.80
2023-06-02T23:54:12.165Z,2.33
2023-06-02T23:57:14.545Z,2.70
